Time;durP1;ratioP1;P1;durP2;ratioP2;P2;SDS_P1;SDS_P2;PMS_P1;PMS_P2;Temp;Humidity;BMP_temperature;BMP_pressure;BME280_temperature;BME280_humidity;BME280_pressure;Samples;Min_cycle;Max_cycle;Signal;HPM_P1;HPM_P2
2024/04/13 00:00:11;;;;;;;;;;;;;;;15.10;80.67;102064.69;4378896;27;19931;-68
2024/04/13 00:02:15;;;;;;;;;;;;;;;15.10;80.80;102075.56;4378315;27;19931;-68
2024/04/13 00:04:19;;;;;;;;;;;;;;;15.09;80.99;102070.28;4379269;27;19930;-68
2024/04/13 00:06:22;;;;;;;;;;;;;;;15.06;81.17;102076.94;4390790;26;20585;-68
2024/04/13 00:08:26;;;;;;;;;;;;;;;15.03;81.35;102071.84;4377160;27;19931;-68
2024/04/13 00:10:27;;;;;;;;;;;;;;;15.02;81.39;102085.63;4381660;27;20345;-68
2024/04/13 00:12:31;;;;;;;;;;;;;;;14.99;81.50;102086.81;4378430;27;19942;-68
2024/04/13 00:14:33;;;;;;;;;;;;;;;14.98;81.69;102089.72;4377422;27;20328;-68
2024/04/13 00:16:34;;;;;;;;;;;;;;;14.95;81.50;102082.72;4380924;27;20280;-68
2024/04/13 00:18:38;;;;;;;;;;;;;;;14.95;81.55;102085.44;4382810;27;20421;-68
2024/04/13 00:20:39;;;;;;;;;;;;;;;14.93;81.76;102076.63;4381847;27;19931;-68
2024/04/13 00:22:47;;;;;;;;;;;;;;;14.90;81.63;102072.38;4385109;27;19937;-68
2024/04/13 00:24:48;;;;;;;;;;;;;;;14.89;81.83;102075.25;4380247;27;19938;-68
2024/04/13 00:26:52;;;;;;;;;;;;;;;14.87;82.03;102069.16;4377237;27;19931;-68
2024/04/13 00:28:54;;;;;;;;;;;;;;;14.85;82.06;102068.50;4384930;27;19930;-68
2024/04/13 00:30:59;;;;;;;;;;;;;;;14.82;82.16;102066.94;4384858;27;19943;-68
2024/04/13 00:33:00;;;;;;;;;;;;;;;14.79;82.29;102067.28;4373760;27;19943;-68
2024/04/13 00:35:05;;;;;;;;;;;;;;;14.77;82.29;102069.34;4380970;27;19938;-68
2024/04/13 00:37:06;;;;;;;;;;;;;;;14.74;82.46;102075.97;4377145;27;20384;-68
2024/04/13 00:39:11;;;;;;;;;;;;;;;14.72;82.68;102069.88;4378054;27;20393;-68
2024/04/13 00:41:15;;;;;;;;;;;;;;;14.70;82.69;102069.19;4350798;27;19935;-68
2024/04/13 00:43:15;;;;;;;;;;;;;;;14.68;82.74;102068.50;4376019;27;19942;-68
2024/04/13 00:45:19;;;;;;;;;;;;;;;14.66;83.05;102067.84;4378703;26;19949;-68
2024/04/13 00:47:20;;;;;;;;;;;;;;;14.64;83.31;102059.00;4377531;26;19931;-68
2024/04/13 00:49:26;;;;;;;;;;;;;;;14.62;83.11;102061.03;4378995;27;20006;-68
2024/04/13 00:51:27;;;;;;;;;;;;;;;14.59;83.24;102059.50;4379866;27;19938;-68
2024/04/13 00:53:33;;;;;;;;;;;;;;;14.57;83.28;102050.63;4380475;27;19938;-68
2024/04/13 00:55:36;;;;;;;;;;;;;;;14.55;83.39;102052.69;4353797;27;19938;-68
2024/04/13 00:57:40;;;;;;;;;;;;;;;14.53;83.97;102052.00;4376715;27;19931;-68
2024/04/13 00:59:41;;;;;;;;;;;;;;;14.52;83.76;102046.75;4381334;27;20456;-68
2024/04/13 01:01:46;;;;;;;;;;;;;;;14.51;83.75;102048.59;4379553;27;19982;-68
2024/04/13 01:03:47;;;;;;;;;;;;;;;14.48;83.76;102043.53;4384250;27;20058;-68
2024/04/13 01:05:48;;;;;;;;;;;;;;;14.47;83.90;102049.13;4379417;26;19931;-68
2024/04/13 01:07:52;;;;;;;;;;;;;;;14.45;83.94;102053.88;4381109;27;20344;-68
2024/04/13 01:09:54;;;;;;;;;;;;;;;14.44;84.28;102052.19;4378991;27;19944;-68
2024/04/13 01:12:01;;;;;;;;;;;;;;;14.42;84.53;102049.66;4382269;27;20352;-67
2024/04/13 01:14:02;;;;;;;;;;;;;;;14.41;84.24;102051.50;4384170;27;19942;-68
2024/04/13 01:16:08;;;;;;;;;;;;;;;14.41;84.49;102059.66;4382389;26;19937;-68
2024/04/13 01:18:10;;;;;;;;;;;;;;;14.39;84.31;102048.09;4382095;26;19938;-69
2024/04/13 01:20:15;;;;;;;;;;;;;;;14.39;84.60;102050.81;4383788;27;19943;-68
2024/04/13 01:22:16;;;;;;;;;;;;;;;14.39;84.57;102055.44;4377634;27;20341;-68
2024/04/13 01:24:22;;;;;;;;;;;;;;;14.37;84.57;102047.44;4380011;27;19937;-68
2024/04/13 01:26:23;;;;;;;;;;;;;;;14.37;84.69;102047.44;4380316;27;19930;-68
2024/04/13 01:28:26;;;;;;;;;;;;;;;14.36;84.84;102043.00;4380445;27;19941;-68
2024/04/13 01:30:28;;;;;;;;;;;;;;;14.36;84.78;102042.19;4363437;27;19938;-68
2024/04/13 01:32:31;;;;;;;;;;;;;;;14.36;84.86;102044.91;4379334;27;19931;-68
2024/04/13 01:34:32;;;;;;;;;;;;;;;14.35;84.70;102049.47;4380624;27;19931;-68
2024/04/13 01:36:39;;;;;;;;;;;;;;;14.33;84.92;102048.78;4378327;26;20001;-68
2024/04/13 01:38:41;;;;;;;;;;;;;;;14.32;85.05;102051.69;4380609;27;19982;-68
2024/04/13 01:40:48;;;;;;;;;;;;;;;14.31;85.15;102041.81;4379921;27;20435;-68
2024/04/13 01:42:49;;;;;;;;;;;;;;;14.30;85.20;102038.25;4351128;27;19976;-68
2024/04/13 01:44:54;;;;;;;;;;;;;;;14.29;85.07;102041.16;4378756;27;20384;-68
2024/04/13 01:46:58;;;;;;;;;;;;;;;14.29;85.17;102047.41;4381495;27;19966;-68
2024/04/13 01:49:03;;;;;;;;;;;;;;;14.26;85.33;102050.47;4381730;26;19930;-68
2024/04/13 01:51:04;;;;;;;;;;;;;;;14.24;85.32;102053.34;4385026;27;19930;-68
2024/04/13 01:53:08;;;;;;;;;;;;;;;14.24;85.35;102044.38;4382884;27;19943;-68
2024/04/13 01:55:09;;;;;;;;;;;;;;;14.22;85.34;102054.56;4379680;27;20348;-68
2024/04/13 01:57:15;;;;;;;;;;;;;;;14.20;85.37;102052.03;4378102;27;19935;-68
2024/04/13 01:59:16;;;;;;;;;;;;;;;14.19;85.48;102063.06;4382129;27;19930;-68
2024/04/13 02:01:20;;;;;;;;;;;;;;;14.16;85.43;102053.38;4376960;27;19938;-68
2024/04/13 02:03:21;;;;;;;;;;;;;;;14.15;85.44;102061.69;4361248;27;19967;-68
2024/04/13 02:05:27;;;;;;;;;;;;;;;14.13;85.68;102061.00;4362265;27;20005;-67
2024/04/13 02:07:29;;;;;;;;;;;;;;;14.12;85.47;102059.31;4382072;27;19938;-67
2024/04/13 02:09:33;;;;;;;;;;;;;;;14.11;85.68;102063.91;4361700;27;19932;-67
2024/04/13 02:11:34;;;;;;;;;;;;;;;14.09;85.83;102063.22;4376342;27;20582;-67
2024/04/13 02:13:40;;;;;;;;;;;;;;;14.09;85.83;102062.34;4376662;27;19930;-67
2024/04/13 02:15:45;;;;;;;;;;;;;;;14.08;85.71;102058.78;4383830;27;20730;-67
2024/04/13 02:17:46;;;;;;;;;;;;;;;14.06;85.79;102061.69;4360454;27;19935;-67
2024/04/13 02:19:49;;;;;;;;;;;;;;;14.05;85.91;102068.13;4380607;26;19931;-67
2024/04/13 02:21:50;;;;;;;;;;;;;;;14.04;85.87;102069.16;4379012;27;19943;-67
2024/04/13 02:23:54;;;;;;;;;;;;;;;14.03;85.97;102066.59;4378278;27;19935;-67
2024/04/13 02:25:57;;;;;;;;;;;;;;;14.02;85.98;102068.47;4379855;27;20373;-67
2024/04/13 02:28:00;;;;;;;;;;;;;;;14.00;86.09;102065.06;4380179;27;19931;-67
2024/04/13 02:30:05;;;;;;;;;;;;;;;13.99;86.04;102074.22;4379223;27;19931;-67
2024/04/13 02:32:09;;;;;;;;;;;;;;;13.98;86.03;102075.25;4383960;27;20094;-67
2024/04/13 02:34:10;;;;;;;;;;;;;;;13.96;86.09;102085.41;4381191;27;19938;-67
2024/04/13 02:36:14;;;;;;;;;;;;;;;13.96;86.22;102076.44;4376375;27;19931;-67
2024/04/13 02:38:15;;;;;;;;;;;;;;;13.93;86.31;102074.88;4381783;27;19938;-67
2024/04/13 02:40:23;;;;;;;;;;;;;;;13.92;86.31;102064.19;4381703;27;19938;-67
2024/04/13 02:42:24;;;;;;;;;;;;;;;13.89;86.49;102065.38;4377200;27;19986;-67
2024/04/13 02:44:28;;;;;;;;;;;;;;;13.86;86.41;102063.84;4361983;27;20293;-67
2024/04/13 02:46:32;;;;;;;;;;;;;;;13.84;86.67;102065.88;4382664;26;20353;-67
2024/04/13 02:48:35;;;;;;;;;;;;;;;13.82;86.58;102061.63;4380200;27;20001;-67
2024/04/13 02:50:36;;;;;;;;;;;;;;;13.78;86.65;102058.41;4378522;27;19942;-67
2024/04/13 02:52:41;;;;;;;;;;;;;;;13.76;86.80;102065.88;4363490;27;20005;-67
2024/04/13 02:54:42;;;;;;;;;;;;;;;13.74;86.63;102059.75;4377422;27;19934;-67
2024/04/13 02:56:45;;;;;;;;;;;;;;;13.72;87.06;102059.06;4376226;27;19938;-67
2024/04/13 02:58:47;;;;;;;;;;;;;;;13.69;87.16;102056.69;4377960;27;19935;-67
2024/04/13 03:00:53;;;;;;;;;;;;;;;13.66;86.91;102052.41;4383004;27;20365;-67
2024/04/13 03:02:57;;;;;;;;;;;;;;;13.62;86.90;102048.34;4377011;27;19931;-67
2024/04/13 03:05:03;;;;;;;;;;;;;;;13.64;86.71;102054.47;4378289;26;19930;-67
2024/04/13 03:07:04;;;;;;;;;;;;;;;13.63;87.09;102044.59;4376025;27;19940;-67
2024/04/13 03:09:07;;;;;;;;;;;;;;;13.61;87.41;102043.09;4376111;27;19938;-67
2024/04/13 03:11:09;;;;;;;;;;;;;;;13.60;87.91;102044.09;4377885;26;19931;-67
2024/04/13 03:13:12;;;;;;;;;;;;;;;13.60;87.57;102050.38;4377836;27;19931;-67
2024/04/13 03:15:13;;;;;;;;;;;;;;;13.58;87.71;102046.13;4378510;26;19938;-67
2024/04/13 03:17:17;;;;;;;;;;;;;;;13.55;87.60;102044.59;4380604;26;20277;-67
2024/04/13 03:19:20;;;;;;;;;;;;;;;13.55;87.64;102041.03;4380577;26;20273;-67
2024/04/13 03:21:24;;;;;;;;;;;;;;;13.51;87.52;102041.38;4381421;27;20280;-67
2024/04/13 03:23:28;;;;;;;;;;;;;;;13.49;87.45;102037.97;4380329;27;19931;-67
2024/04/13 03:25:33;;;;;;;;;;;;;;;13.47;87.55;102039.97;4376444;27;19930;-67
2024/04/13 03:27:35;;;;;;;;;;;;;;;13.47;87.73;102045.41;4375426;27;19978;-67
2024/04/13 03:29:39;;;;;;;;;;;;;;;13.41;87.62;102028.94;4378183;26;19942;-67
2024/04/13 03:31:41;;;;;;;;;;;;;;;13.44;87.80;102034.03;4381584;27;20373;-67
2024/04/13 03:33:45;;;;;;;;;;;;;;;13.42;87.91;102038.78;4376239;27;20376;-67
2024/04/13 03:35:48;;;;;;;;;;;;;;;13.41;88.05;102037.09;4376007;27;20001;-67
2024/04/13 03:37:56;;;;;;;;;;;;;;;13.39;88.16;102041.84;4378475;27;19940;-67
2024/04/13 03:40:00;;;;;;;;;;;;;;;13.37;88.43;102041.13;4378584;27;19930;-67
2024/04/13 03:42:01;;;;;;;;;;;;;;;13.35;88.29;102033.16;4379751;27;19932;-67
2024/04/13 03:44:05;;;;;;;;;;;;;;;13.32;88.34;102041.59;4347829;27;19993;-67
2024/04/13 03:46:06;;;;;;;;;;;;;;;13.31;88.58;102046.16;4380433;26;19938;-67
2024/04/13 03:48:10;;;;;;;;;;;;;;;13.29;88.79;102052.75;4379066;27;19942;-67
2024/04/13 03:50:11;;;;;;;;;;;;;;;13.25;88.74;102041.41;4380701;27;19931;-67
2024/04/13 03:52:15;;;;;;;;;;;;;;;13.23;88.94;102045.28;4377403;27;19931;-67
2024/04/13 03:54:18;;;;;;;;;;;;;;;13.20;89.02;102045.59;4379732;27;20001;-67
2024/04/13 03:56:19;;;;;;;;;;;;;;;13.19;89.06;102046.63;4382135;26;20353;-67
2024/04/13 03:58:23;;;;;;;;;;;;;;;13.15;89.08;102043.41;4379869;27;20272;-67
2024/04/13 04:00:24;;;;;;;;;;;;;;;13.12;89.29;102041.84;4382170;27;19931;-67
2024/04/13 04:02:25;;;;;;;;;;;;;;;13.10;89.47;102045.72;4364332;27;19979;-67
2024/04/13 04:04:30;;;;;;;;;;;;;;;13.09;89.49;102044.03;4383122;27;19939;-66
2024/04/13 04:06:31;;;;;;;;;;;;;;;13.05;89.74;102045.38;4380645;27;19931;-66
2024/04/13 04:08:37;;;;;;;;;;;;;;;13.03;89.58;102042.81;4379386;27;19935;-66
2024/04/13 04:10:38;;;;;;;;;;;;;;;13.03;89.72;102039.25;4382463;27;19941;-66
2024/04/13 04:12:42;;;;;;;;;;;;;;;13.02;90.09;102040.25;4378798;27;19931;-66
2024/04/13 04:14:43;;;;;;;;;;;;;;;13.00;89.94;102040.44;4379580;27;20388;-66
2024/04/13 04:16:47;;;;;;;;;;;;;;;12.98;89.88;102046.00;4380811;27;19935;-68
2024/04/13 04:18:49;;;;;;;;;;;;;;;12.97;90.35;102054.31;4379601;26;19939;-68
2024/04/13 04:20:53;;;;;;;;;;;;;;;12.96;90.29;102042.63;4383640;27;20281;-68
2024/04/13 04:22:54;;;;;;;;;;;;;;;12.96;90.45;102041.75;4364420;27;19931;-68
2024/04/13 04:25:00;;;;;;;;;;;;;;;12.94;90.39;102046.50;4365998;26;19942;-68
2024/04/13 04:27:05;;;;;;;;;;;;;;;12.92;90.55;102043.09;4381683;27;19930;-69
2024/04/13 04:29:10;;;;;;;;;;;;;;;12.91;90.63;102049.53;4363078;27;20052;-68
2024/04/13 04:31:12;;;;;;;;;;;;;;;12.89;90.47;102049.69;4381913;27;20393;-69
2024/04/13 04:33:15;;;;;;;;;;;;;;;12.86;90.75;102050.00;4380432;27;19931;-68
2024/04/13 04:35:16;;;;;;;;;;;;;;;12.85;90.82;102042.88;4377931;27;19931;-68
2024/04/13 04:37:20;;;;;;;;;;;;;;;12.84;91.14;102048.47;4378191;27;19942;-68
2024/04/13 04:39:21;;;;;;;;;;;;;;;12.82;91.24;102040.50;4380850;27;20364;-68
2024/04/13 04:41:28;;;;;;;;;;;;;;;12.82;91.45;102043.22;4362088;27;20365;-68
2024/04/13 04:43:29;;;;;;;;;;;;;;;12.80;91.77;102037.97;4382112;27;19946;-68
2024/04/13 04:45:34;;;;;;;;;;;;;;;12.78;91.57;102048.09;4380668;26;19931;-68
2024/04/13 04:47:35;;;;;;;;;;;;;;;12.77;91.78;102037.41;4362513;27;19931;-68
2024/04/13 04:49:39;;;;;;;;;;;;;;;12.78;92.01;102044.53;4380727;27;20372;-70
2024/04/13 04:51:40;;;;;;;;;;;;;;;12.76;92.08;102036.56;4380011;27;20288;-68
2024/04/13 04:53:44;;;;;;;;;;;;;;;12.76;92.20;102041.16;4379073;27;19938;-68
2024/04/13 04:55:45;;;;;;;;;;;;;;;12.75;92.17;102042.16;4383928;26;20408;-68
2024/04/13 04:57:51;;;;;;;;;;;;;;;12.74;92.30;102040.44;4377374;27;19935;-68
2024/04/13 04:59:52;;;;;;;;;;;;;;;12.73;92.37;102053.16;4378099;27;19937;-67
2024/04/13 05:01:56;;;;;;;;;;;;;;;12.73;92.35;102046.88;4379472;27;19931;-68
2024/04/13 05:03:57;;;;;;;;;;;;;;;12.73;92.51;102046.88;4376988;27;19967;-68
2024/04/13 05:06:00;;;;;;;;;;;;;;;12.73;92.75;102049.59;4347432;27;20388;-69
2024/04/13 05:08:01;;;;;;;;;;;;;;;12.74;92.76;102054.00;4379878;27;20656;-68
2024/04/13 05:10:08;;;;;;;;;;;;;;;12.75;92.93;102055.69;4377868;27;19942;-68
2024/04/13 05:12:10;;;;;;;;;;;;;;;12.75;93.09;102056.53;4359891;27;20042;-69
2024/04/13 05:14:18;;;;;;;;;;;;;;;12.76;93.01;102057.41;4384745;27;19938;-68
2024/04/13 05:16:19;;;;;;;;;;;;;;;12.78;93.38;102055.38;4380106;26;19935;-67
2024/04/13 05:18:23;;;;;;;;;;;;;;;12.79;93.34;102052.50;4379212;26;20427;-68
2024/04/13 05:20:24;;;;;;;;;;;;;;;12.81;93.45;102052.34;4360608;27;19943;-68
2024/04/13 05:22:28;;;;;;;;;;;;;;;12.83;93.54;102055.75;4361490;27;19935;-68
2024/04/13 05:24:29;;;;;;;;;;;;;;;12.85;93.65;102069.13;4378143;27;19931;-68
2024/04/13 05:26:33;;;;;;;;;;;;;;;12.86;93.60;102066.28;4377618;27;19930;-68
2024/04/13 05:28:34;;;;;;;;;;;;;;;12.88;93.67;102072.38;4378544;27;19930;-68
2024/04/13 05:30:55;;;;;;;;;;;;;;;12.91;93.78;102066.63;4380633;27;20001;-68
2024/04/13 05:32:56;;;;;;;;;;;;;;;12.93;93.99;102063.75;4377720;27;20023;-68
2024/04/13 05:34:59;;;;;;;;;;;;;;;12.96;94.25;102063.44;4378475;27;19931;-68
2024/04/13 05:37:00;;;;;;;;;;;;;;;12.97;94.14;102060.56;4361639;27;19932;-67
2024/04/13 05:39:04;;;;;;;;;;;;;;;12.98;94.33;102059.56;4377661;27;19931;-66
2024/04/13 05:41:05;;;;;;;;;;;;;;;13.01;94.38;102058.41;4377436;27;19946;-66
2024/04/13 05:43:09;;;;;;;;;;;;;;;13.03;94.36;102053.66;4384202;27;19931;-66
2024/04/13 05:45:10;;;;;;;;;;;;;;;13.06;94.60;102052.50;4380465;26;20387;-66
2024/04/13 05:47:17;;;;;;;;;;;;;;;13.08;94.57;102050.47;4378968;26;19999;-66
2024/04/13 05:49:18;;;;;;;;;;;;;;;13.12;94.45;102051.88;4334741;27;19961;-66
2024/04/13 05:51:24;;;;;;;;;;;;;;;13.12;94.69;102060.84;4378097;27;19947;-66
2024/04/13 05:53:25;;;;;;;;;;;;;;;13.16;94.63;102055.94;4377240;27;19931;-66
2024/04/13 05:55:28;;;;;;;;;;;;;;;13.19;94.95;102063.75;4377401;27;20272;-66
2024/04/13 05:57:30;;;;;;;;;;;;;;;13.21;94.92;102064.44;4381970;27;20384;-66
2024/04/13 05:59:33;;;;;;;;;;;;;;;13.24;94.92;102063.25;4379284;27;19932;-67
2024/04/13 06:01:34;;;;;;;;;;;;;;;13.27;94.88;102061.06;4379607;27;19931;-67
2024/04/13 06:03:40;;;;;;;;;;;;;;;13.30;94.88;102066.16;4374722;27;20266;-66
2024/04/13 06:05:41;;;;;;;;;;;;;;;13.33;95.07;102067.75;4381041;26;19931;-68
2024/04/13 06:07:45;;;;;;;;;;;;;;;13.36;95.10;102067.41;4375487;27;19931;-67
2024/04/13 06:09:47;;;;;;;;;;;;;;;13.40;95.03;102062.50;4378323;27;19931;-68
2024/04/13 06:11:51;;;;;;;;;;;;;;;13.42;95.07;102058.63;4388466;27;20595;-67
2024/04/13 06:13:52;;;;;;;;;;;;;;;13.45;94.88;102055.59;4362057;27;19942;-67
2024/04/13 06:15:55;;;;;;;;;;;;;;;13.49;95.05;102054.25;4378093;27;19937;-67
2024/04/13 06:17:58;;;;;;;;;;;;;;;13.53;94.97;102052.06;4382989;26;19931;-67
2024/04/13 06:20:04;;;;;;;;;;;;;;;13.56;94.95;102059.00;4382068;27;19931;-67
2024/04/13 06:22:05;;;;;;;;;;;;;;;13.59;95.00;102056.81;4378675;27;19931;-67
2024/04/13 06:24:09;;;;;;;;;;;;;;;13.62;94.98;102064.66;4361437;27;19986;-67
2024/04/13 06:26:10;;;;;;;;;;;;;;;13.66;94.81;102057.00;4377527;26;19931;-67
2024/04/13 06:28:13;;;;;;;;;;;;;;;13.68;94.83;102064.00;4375454;27;19931;-68
2024/04/13 06:30:15;;;;;;;;;;;;;;;13.72;94.78;102072.63;4377425;27;19930;-68
2024/04/13 06:32:19;;;;;;;;;;;;;;;13.76;94.76;102067.72;4377629;27;20236;-67
2024/04/13 06:34:20;;;;;;;;;;;;;;;13.79;94.76;102059.25;4377725;27;19981;-67
2024/04/13 06:36:26;;;;;;;;;;;;;;;13.82;94.76;102064.34;4374205;27;19931;-67
2024/04/13 06:38:27;;;;;;;;;;;;;;;13.86;94.65;102057.56;4377409;27;19935;-67
2024/04/13 06:40:31;;;;;;;;;;;;;;;13.89;94.39;102065.38;4377177;27;19938;-67
2024/04/13 06:42:33;;;;;;;;;;;;;;;13.93;94.69;102072.16;4375923;27;20295;-68
2024/04/13 06:44:37;;;;;;;;;;;;;;;13.96;94.54;102063.69;4377338;27;19939;-67
2024/04/13 06:46:40;;;;;;;;;;;;;;;14.00;94.61;102056.91;4377357;26;20281;-68
2024/04/13 06:48:44;;;;;;;;;;;;;;;14.03;94.34;102051.16;4376602;26;19947;-68
2024/04/13 06:50:45;;;;;;;;;;;;;;;14.08;94.43;102047.09;4387673;27;19937;-68
2024/04/13 06:52:51;;;;;;;;;;;;;;;14.11;94.45;102036.72;4379118;27;19930;-69
2024/04/13 06:54:53;;;;;;;;;;;;;;;14.14;94.38;102030.97;4376015;27;20379;-69
2024/04/13 06:56:57;;;;;;;;;;;;;;;14.19;93.82;102035.88;4374201;27;20617;-69
2024/04/13 06:58:58;;;;;;;;;;;;;;;14.22;93.90;102036.38;4377395;27;19937;-69
2024/04/13 07:01:02;;;;;;;;;;;;;;;14.27;93.69;102041.31;4375957;27;19985;-68
2024/04/13 07:03:03;;;;;;;;;;;;;;;14.31;93.31;102039.09;4376107;27;19950;-68
2024/04/13 07:05:08;;;;;;;;;;;;;;;14.35;93.31;102025.00;4376457;27;19931;-69
2024/04/13 07:07:10;;;;;;;;;;;;;;;14.40;92.88;102028.06;4359686;27;19937;-67
2024/04/13 07:09:20;;;;;;;;;;;;;;;14.44;92.48;102025.84;4376058;27;19931;-69
2024/04/13 07:11:21;;;;;;;;;;;;;;;14.48;92.38;102029.06;4377330;27;19938;-68
2024/04/13 07:13:25;;;;;;;;;;;;;;;14.52;91.76;102034.00;4375003;27;19931;-68
2024/04/13 07:15:26;;;;;;;;;;;;;;;14.56;91.43;102034.50;4376958;27;19938;-68
2024/04/13 07:17:29;;;;;;;;;;;;;;;14.60;90.64;102033.16;4376259;26;19935;-68
2024/04/13 07:19:30;;;;;;;;;;;;;;;14.65;89.87;102021.78;4358578;27;19942;-68
2024/04/13 07:21:34;;;;;;;;;;;;;;;14.69;89.50;102013.09;4375513;27;20000;-68
2024/04/13 07:23:36;;;;;;;;;;;;;;;14.73;88.98;102010.88;4374818;27;19938;-67
2024/04/13 07:25:42;;;;;;;;;;;;;;;14.74;88.40;102013.41;4376701;26;19930;-68
2024/04/13 07:27:44;;;;;;;;;;;;;;;14.81;87.40;102013.59;4376645;27;19938;-68
2024/04/13 07:29:47;;;;;;;;;;;;;;;14.86;87.37;102007.59;4379713;27;19931;-68
2024/04/13 07:31:48;;;;;;;;;;;;;;;14.90;87.20;102015.25;4379996;27;19938;-68
2024/04/13 07:33:52;;;;;;;;;;;;;;;14.94;86.83;102007.59;4377703;27;19930;-68
2024/04/13 07:35:53;;;;;;;;;;;;;;;15.00;86.51;102009.63;4379079;26;19939;-68
2024/04/13 07:37:54;;;;;;;;;;;;;;;15.05;86.05;102007.22;4378853;27;19931;-68
2024/04/13 07:39:58;;;;;;;;;;;;;;;15.09;86.30;102015.88;4378236;27;19937;-68
2024/04/13 07:42:02;;;;;;;;;;;;;;;15.13;85.72;102017.22;4379828;27;20744;-67
2024/04/13 07:44:06;;;;;;;;;;;;;;;15.18;85.63;102020.25;4380717;27;19939;-68
2024/04/13 07:46:10;;;;;;;;;;;;;;;15.23;85.51;102008.84;4380075;26;20073;-68
2024/04/13 07:48:11;;;;;;;;;;;;;;;15.27;84.88;101996.59;4378840;26;19938;-67
2024/04/13 07:50:14;;;;;;;;;;;;;;;15.32;85.18;101996.91;4378219;27;19942;-68
2024/04/13 07:52:15;;;;;;;;;;;;;;;15.36;84.92;102008.28;4378252;27;19943;-67
2024/04/13 07:54:19;;;;;;;;;;;;;;;15.40;85.06;101999.56;4380158;27;19935;-66
2024/04/13 07:56:20;;;;;;;;;;;;;;;15.44;84.82;101986.47;4379374;27;19979;-68
2024/04/13 07:58:29;;;;;;;;;;;;;;;15.48;84.13;102006.84;4377954;27;20376;-67
2024/04/13 08:00:30;;;;;;;;;;;;;;;15.53;84.50;102009.03;4389987;27;20387;-69
2024/04/13 08:02:35;;;;;;;;;;;;;;;15.56;84.29;102000.50;4378790;27;19967;-66
2024/04/13 08:04:39;;;;;;;;;;;;;;;15.58;83.78;101999.31;4378818;27;19931;-68
2024/04/13 08:06:45;;;;;;;;;;;;;;;15.62;83.72;101991.63;4381736;27;19962;-68
2024/04/13 08:08:50;;;;;;;;;;;;;;;15.64;83.30;101990.44;4378267;27;19937;-68
2024/04/13 08:10:58;;;;;;;;;;;;;;;15.70;83.62;101996.16;4379970;27;20020;-69
2024/04/13 08:13:05;;;;;;;;;;;;;;;15.73;82.92;101998.53;4378643;27;19940;-68
2024/04/13 08:15:12;;;;;;;;;;;;;;;15.75;83.03;101997.34;4362188;27;19931;-68
2024/04/13 08:17:13;;;;;;;;;;;;;;;15.79;83.09;102003.28;4379423;26;20101;-67
2024/04/13 08:19:17;;;;;;;;;;;;;;;15.82;82.83;101997.47;4376273;26;19931;-67
2024/04/13 08:21:18;;;;;;;;;;;;;;;15.83;82.49;102000.03;4379918;27;20288;-66
2024/04/13 08:23:22;;;;;;;;;;;;;;;15.86;82.20;101993.34;4362229;27;19934;-67
2024/04/13 08:25:23;;;;;;;;;;;;;;;15.90;82.62;101999.31;4359863;27;19942;-67
2024/04/13 08:27:27;;;;;;;;;;;;;;;15.92;82.22;102010.88;4359547;27;19931;-66
2024/04/13 08:29:28;;;;;;;;;;;;;;;15.94;81.91;102006.94;4376819;27;19931;-67
2024/04/13 08:31:34;;;;;;;;;;;;;;;15.95;82.15;101989.53;4378045;27;19930;-68
2024/04/13 08:33:36;;;;;;;;;;;;;;;16.00;81.99;101991.72;4377460;27;19934;-66
2024/04/13 08:35:41;;;;;;;;;;;;;;;16.00;81.99;102006.22;4347761;27;19936;-68
2024/04/13 08:37:42;;;;;;;;;;;;;;;16.03;82.14;101989.50;4378649;27;19931;-67
2024/04/13 08:39:45;;;;;;;;;;;;;;;16.05;81.40;102002.94;4377265;27;20001;-69
2024/04/13 08:41:51;;;;;;;;;;;;;;;16.09;81.56;101998.81;4379446;27;19974;-69
2024/04/13 08:43:58;;;;;;;;;;;;;;;16.09;81.23;101990.63;4378906;27;19973;-69
2024/04/13 08:46:04;;;;;;;;;;;;;;;16.11;81.31;101996.75;4378812;26;19931;-68
2024/04/13 08:48:10;;;;;;;;;;;;;;;16.14;80.69;101999.09;4379207;26;19958;-69
2024/04/13 08:50:12;;;;;;;;;;;;;;;16.16;80.38;101991.59;4390398;27;19941;-67
2024/04/13 08:52:16;;;;;;;;;;;;;;;16.19;80.29;101995.81;4362094;27;19931;-67
2024/04/13 08:54:17;;;;;;;;;;;;;;;16.21;80.31;101985.59;4378359;27;19931;-68
2024/04/13 08:56:23;;;;;;;;;;;;;;;16.21;79.70;101991.88;4362008;27;19935;-67
2024/04/13 08:58:24;;;;;;;;;;;;;;;16.23;79.53;101999.88;4377389;27;19942;-68
2024/04/13 09:00:27;;;;;;;;;;;;;;;16.25;79.11;101986.91;4377879;27;20281;-69
2024/04/13 09:02:31;;;;;;;;;;;;;;;16.26;79.14;101994.06;4376525;27;19938;-68
2024/04/13 09:04:38;;;;;;;;;;;;;;;16.29;78.71;102006.50;4376718;27;19943;-68
2024/04/13 09:06:39;;;;;;;;;;;;;;;16.31;78.24;101993.50;4362295;27;20289;-66
2024/04/13 09:08:44;;;;;;;;;;;;;;;16.32;77.84;101982.41;4379016;27;20281;-69
2024/04/13 09:10:45;;;;;;;;;;;;;;;16.34;77.57;101984.97;4379767;27;19930;-68
2024/04/13 09:12:48;;;;;;;;;;;;;;;16.34;77.73;101974.06;4378216;27;20381;-68
2024/04/13 09:14:50;;;;;;;;;;;;;;;16.36;77.63;101981.03;4378303;27;19938;-69
2024/04/13 09:16:53;;;;;;;;;;;;;;;16.37;77.80;101977.25;4380793;26;19930;-68
2024/04/13 09:18:54;;;;;;;;;;;;;;;16.38;77.33;101965.31;4379396;26;19938;-68
2024/04/13 09:21:00;;;;;;;;;;;;;;;16.41;77.04;101975.03;4362855;27;19931;-67
2024/04/13 09:23:01;;;;;;;;;;;;;;;16.43;77.53;101964.75;4347822;27;19936;-68
2024/04/13 09:25:08;;;;;;;;;;;;;;;16.44;77.06;101963.75;4377018;27;19930;-68
2024/04/13 09:27:14;;;;;;;;;;;;;;;16.46;77.05;101980.75;4378258;26;19990;-69
2024/04/13 09:29:27;;;;;;;;;;;;;;;16.48;76.89;101965.03;4380193;27;19931;-68
2024/04/13 09:31:30;;;;;;;;;;;;;;;16.51;76.62;101955.66;4383057;27;19999;-68
2024/04/13 09:33:34;;;;;;;;;;;;;;;16.52;76.12;101954.59;4381909;27;20392;-67
2024/04/13 09:35:35;;;;;;;;;;;;;;;16.54;76.06;101942.47;4382577;27;19930;-68
2024/04/13 09:37:42;;;;;;;;;;;;;;;16.55;75.82;101944.19;4383357;26;19963;-68
2024/04/13 09:39:44;;;;;;;;;;;;;;;16.58;75.78;101948.41;4382788;27;19931;-67
2024/04/13 09:41:48;;;;;;;;;;;;;;;16.59;75.58;101933.75;4384697;27;19939;-68
2024/04/13 09:43:49;;;;;;;;;;;;;;;16.60;75.62;101938.19;4386796;26;19931;-68
2024/04/13 09:45:57;;;;;;;;;;;;;;;16.62;75.46;101929.81;4382683;27;20004;-69
2024/04/13 09:47:59;;;;;;;;;;;;;;;16.64;75.41;101934.00;4384202;26;19938;-68
2024/04/13 09:52:23;;;;;;;;;;;;;;;16.68;75.69;101931.78;4379024;27;19945;-68
2024/04/13 09:54:29;;;;;;;;;;;;;;;16.69;75.95;101931.59;4362236;27;19931;-66
2024/04/13 09:56:33;;;;;;;;;;;;;;;16.71;75.58;101923.22;4383207;27;19931;-68
2024/04/13 09:58:34;;;;;;;;;;;;;;;16.73;75.75;101921.13;4384152;27;19942;-67
2024/04/13 10:00:35;;;;;;;;;;;;;;;16.74;75.54;101926.41;4384190;27;19931;-67
2024/04/13 10:02:39;;;;;;;;;;;;;;;16.76;75.64;101921.59;4391352;27;19953;-68
2024/04/13 10:04:40;;;;;;;;;;;;;;;16.80;75.32;101926.69;4384464;27;20388;-68
2024/04/13 10:06:44;;;;;;;;;;;;;;;16.80;75.46;101908.41;4383934;27;19930;-68
2024/04/13 10:08:48;;;;;;;;;;;;;;;16.83;75.49;101929.84;4386556;26;20281;-72
2024/04/13 10:10:56;;;;;;;;;;;;;;;16.86;74.80;101928.69;4382545;26;19986;-68
2024/04/13 10:12:57;;;;;;;;;;;;;;;16.86;73.93;101921.34;4384550;27;19938;-68
2024/04/13 10:15:01;;;;;;;;;;;;;;;16.89;73.64;101920.13;4382342;27;20262;-66
2024/04/13 10:17:32;;;;;;;;;;;;;;;16.88;73.95;101907.50;4384935;26;19930;-70
2024/04/13 10:19:41;;;;;;;;;;;;;;;16.93;73.74;101925.00;4342599;27;19939;-68
2024/04/13 10:21:42;;;;;;;;;;;;;;;16.95;74.02;101921.25;4383994;27;19931;-67
2024/04/13 10:23:49;;;;;;;;;;;;;;;16.97;74.08;101903.63;4384873;26;20272;-67
2024/04/13 10:25:58;;;;;;;;;;;;;;;17.00;73.58;101910.59;4380627;27;19988;-68
2024/04/13 10:28:08;;;;;;;;;;;;;;;17.00;73.60;101908.69;4383204;26;19958;-68
2024/04/13 10:30:10;;;;;;;;;;;;;;;17.03;73.47;101908.31;4386125;26;19963;-67
2024/04/13 10:32:16;;;;;;;;;;;;;;;17.06;73.52;101896.19;4388148;26;19937;-68
2024/04/13 10:34:24;;;;;;;;;;;;;;;17.07;73.06;101901.44;4384264;26;19938;-68